sensor_id;sensor_type;location;lat;lon;timestamp;pressure;altitude;pressure_sealevel;temperature;humidity
64711;BME280;51139;45.626;6.850;2023-05-29T00:00:12;82028.19;;;12.03;58.12
64711;BME280;51139;45.626;6.850;2023-05-29T00:02:46;82024.97;;;11.56;60.13
64711;BME280;51139;45.626;6.850;2023-05-29T00:05:11;82025.81;;;12.07;58.19
64711;BME280;51139;45.626;6.850;2023-05-29T00:07:38;82027.63;;;12.86;54.88
64711;BME280;51139;45.626;6.850;2023-05-29T00:10:04;82021.88;;;12.89;55.36
64711;BME280;51139;45.626;6.850;2023-05-29T00:12:30;82017.19;;;13.09;54.87
64711;BME280;51139;45.626;6.850;2023-05-29T00:14:55;82011.13;;;12.77;55.32
64711;BME280;51139;45.626;6.850;2023-05-29T00:17:21;82017.94;;;12.49;56.67
64711;BME280;51139;45.626;6.850;2023-05-29T00:19:46;82016.59;;;12.18;58.49
64711;BME280;51139;45.626;6.850;2023-05-29T00:22:12;82024.69;;;12.10;58.29
64711;BME280;51139;45.626;6.850;2023-05-29T00:24:37;82007.38;;;12.19;58.22
64711;BME280;51139;45.626;6.850;2023-05-29T00:27:03;82010.28;;;11.84;58.87
64711;BME280;51139;45.626;6.850;2023-05-29T00:29:28;82011.69;;;11.85;59.10
64711;BME280;51139;45.626;6.850;2023-05-29T00:31:55;82013.81;;;12.16;58.23
64711;BME280;51139;45.626;6.850;2023-05-29T00:34:22;82010.38;;;12.45;56.15
64711;BME280;51139;45.626;6.850;2023-05-29T00:36:48;82000.44;;;12.55;56.19
64711;BME280;51139;45.626;6.850;2023-05-29T00:39:14;82003.44;;;11.91;58.93
64711;BME280;51139;45.626;6.850;2023-05-29T00:41:40;81999.25;;;12.17;58.36
64711;BME280;51139;45.626;6.850;2023-05-29T00:44:05;81995.94;;;12.07;58.43
64711;BME280;51139;45.626;6.850;2023-05-29T00:46:32;81999.13;;;11.66;59.83
64711;BME280;51139;45.626;6.850;2023-05-29T00:49:01;81997.31;;;11.49;60.98
64711;BME280;51139;45.626;6.850;2023-05-29T00:51:27;81997.53;;;11.14;63.37
64711;BME280;51139;45.626;6.850;2023-05-29T00:53:54;81996.81;;;11.03;63.49
64711;BME280;51139;45.626;6.850;2023-05-29T00:56:20;81989.88;;;11.28;63.19
64711;BME280;51139;45.626;6.850;2023-05-29T00:58:48;81994.06;;;11.21;62.92
64711;BME280;51139;45.626;6.850;2023-05-29T01:01:16;81987.38;;;11.30;62.83
64711;BME280;51139;45.626;6.850;2023-05-29T01:03:42;81985.72;;;11.64;60.92
64711;BME280;51139;45.626;6.850;2023-05-29T01:06:08;81981.94;;;11.77;60.11
64711;BME280;51139;45.626;6.850;2023-05-29T01:08:35;81968.09;;;11.98;58.24
64711;BME280;51139;45.626;6.850;2023-05-29T01:11:08;81968.56;;;12.55;56.57
64711;BME280;51139;45.626;6.850;2023-05-29T01:13:41;81965.16;;;12.23;56.47
64711;BME280;51139;45.626;6.850;2023-05-29T01:16:12;81970.09;;;11.68;58.79
64711;BME280;51139;45.626;6.850;2023-05-29T01:19:01;81968.09;;;12.28;56.05
64711;BME280;51139;45.626;6.850;2023-05-29T01:24:13;81962.28;;;12.51;54.51
64711;BME280;51139;45.626;6.850;2023-05-29T01:26:58;81966.69;;;12.17;56.97
64711;BME280;51139;45.626;6.850;2023-05-29T01:29:29;81975.50;;;12.19;56.01
64711;BME280;51139;45.626;6.850;2023-05-29T01:31:58;81976.34;;;11.14;60.07
64711;BME280;51139;45.626;6.850;2023-05-29T01:34:24;81969.78;;;11.44;60.05
64711;BME280;51139;45.626;6.850;2023-05-29T01:36:50;81972.44;;;11.44;61.03
64711;BME280;51139;45.626;6.850;2023-05-29T01:39:15;81971.44;;;11.10;60.89
64711;BME280;51139;45.626;6.850;2023-05-29T01:41:43;81970.75;;;11.09;60.78
64711;BME280;51139;45.626;6.850;2023-05-29T01:44:11;81960.16;;;11.39;59.82
64711;BME280;51139;45.626;6.850;2023-05-29T01:46:38;81962.69;;;11.57;59.92
64711;BME280;51139;45.626;6.850;2023-05-29T01:49:04;81952.34;;;11.71;58.66
64711;BME280;51139;45.626;6.850;2023-05-29T01:51:30;81952.63;;;11.26;60.50
64711;BME280;51139;45.626;6.850;2023-05-29T01:53:57;81949.66;;;11.02;62.23
64711;BME280;51139;45.626;6.850;2023-05-29T01:56:24;81959.75;;;11.23;61.53
64711;BME280;51139;45.626;6.850;2023-05-29T01:58:52;81960.03;;;11.47;60.14
64711;BME280;51139;45.626;6.850;2023-05-29T02:01:19;81954.31;;;11.21;60.84
64711;BME280;51139;45.626;6.850;2023-05-29T02:03:45;81961.09;;;10.94;62.05
64711;BME280;51139;45.626;6.850;2023-05-29T02:06:10;81954.41;;;10.93;62.38
64711;BME280;51139;45.626;6.850;2023-05-29T02:08:36;81955.03;;;10.74;62.64
64711;BME280;51139;45.626;6.850;2023-05-29T02:11:01;81959.50;;;10.72;63.15
64711;BME280;51139;45.626;6.850;2023-05-29T02:13:27;81964.06;;;11.08;61.57
64711;BME280;51139;45.626;6.850;2023-05-29T02:15:52;81960.47;;;10.76;62.00
64711;BME280;51139;45.626;6.850;2023-05-29T02:18:17;81955.63;;;10.83;62.15
64711;BME280;51139;45.626;6.850;2023-05-29T02:20:44;81964.34;;;10.56;63.32
64711;BME280;51139;45.626;6.850;2023-05-29T02:23:10;81959.44;;;10.52;62.86
64711;BME280;51139;45.626;6.850;2023-05-29T02:25:36;81954.13;;;11.09;61.45
64711;BME280;51139;45.626;6.850;2023-05-29T02:28:02;81948.91;;;10.82;62.00
64711;BME280;51139;45.626;6.850;2023-05-29T02:30:28;81947.84;;;10.94;62.29
64711;BME280;51139;45.626;6.850;2023-05-29T02:32:54;81955.69;;;11.42;59.24
64711;BME280;51139;45.626;6.850;2023-05-29T02:35:20;81956.19;;;10.91;61.22
64711;BME280;51139;45.626;6.850;2023-05-29T02:37:51;81948.78;;;10.79;61.86
64711;BME280;51139;45.626;6.850;2023-05-29T02:40:17;81956.38;;;10.56;63.94
64711;BME280;51139;45.626;6.850;2023-05-29T02:42:43;81940.81;;;10.32;65.07
64711;BME280;51139;45.626;6.850;2023-05-29T02:45:08;81947.19;;;10.57;64.94
64711;BME280;51139;45.626;6.850;2023-05-29T02:47:35;81946.13;;;10.79;64.26
64711;BME280;51139;45.626;6.850;2023-05-29T02:50:01;81944.69;;;11.35;60.69
64711;BME280;51139;45.626;6.850;2023-05-29T02:52:26;81943.78;;;11.03;61.01
64711;BME280;51139;45.626;6.850;2023-05-29T02:54:52;81938.06;;;10.97;62.39
64711;BME280;51139;45.626;6.850;2023-05-29T02:57:19;81936.00;;;11.05;61.36
64711;BME280;51139;45.626;6.850;2023-05-29T02:59:45;81935.03;;;11.11;61.42
64711;BME280;51139;45.626;6.850;2023-05-29T03:02:11;81939.06;;;11.02;62.17
64711;BME280;51139;45.626;6.850;2023-05-29T03:04:36;81933.28;;;10.66;63.47
64711;BME280;51139;45.626;6.850;2023-05-29T03:07:02;81937.75;;;10.63;63.88
64711;BME280;51139;45.626;6.850;2023-05-29T03:09:27;81930.59;;;10.56;64.84
64711;BME280;51139;45.626;6.850;2023-05-29T03:11:53;81936.88;;;10.61;64.00
64711;BME280;51139;45.626;6.850;2023-05-29T03:14:18;81931.78;;;10.83;64.29
64711;BME280;51139;45.626;6.850;2023-05-29T03:16:44;81922.03;;;10.85;62.55
64711;BME280;51139;45.626;6.850;2023-05-29T03:19:10;81927.59;;;10.79;62.21
64711;BME280;51139;45.626;6.850;2023-05-29T03:21:36;81932.03;;;10.67;63.41
64711;BME280;51139;45.626;6.850;2023-05-29T03:24:02;81930.28;;;10.42;64.82
64711;BME280;51139;45.626;6.850;2023-05-29T03:26:30;81917.69;;;10.33;65.20
64711;BME280;51139;45.626;6.850;2023-05-29T03:28:56;81925.78;;;10.35;65.13
64711;BME280;51139;45.626;6.850;2023-05-29T03:31:21;81932.47;;;10.36;65.40
64711;BME280;51139;45.626;6.850;2023-05-29T03:33:47;81935.59;;;10.42;65.58
64711;BME280;51139;45.626;6.850;2023-05-29T03:36:13;81926.16;;;10.31;65.89
64711;BME280;51139;45.626;6.850;2023-05-29T03:38:38;81925.28;;;10.56;64.02
64711;BME280;51139;45.626;6.850;2023-05-29T03:41:04;81927.38;;;10.48;65.05
64711;BME280;51139;45.626;6.850;2023-05-29T03:43:30;81931.16;;;10.55;65.24
64711;BME280;51139;45.626;6.850;2023-05-29T03:45:55;81924.03;;;10.57;64.76
64711;BME280;51139;45.626;6.850;2023-05-29T03:48:21;81924.84;;;10.50;64.21
64711;BME280;51139;45.626;6.850;2023-05-29T03:50:46;81917.88;;;11.21;58.58
64711;BME280;51139;45.626;6.850;2023-05-29T03:53:12;81916.16;;;11.85;56.85
64711;BME280;51139;45.626;6.850;2023-05-29T03:55:37;81918.69;;;12.03;55.99
64711;BME280;51139;45.626;6.850;2023-05-29T03:58:03;81916.34;;;11.58;56.33
64711;BME280;51139;45.626;6.850;2023-05-29T04:00:28;81917.03;;;11.58;57.50
64711;BME280;51139;45.626;6.850;2023-05-29T04:02:55;81921.59;;;11.87;56.45
64711;BME280;51139;45.626;6.850;2023-05-29T04:05:20;81913.97;;;11.42;57.47
64711;BME280;51139;45.626;6.850;2023-05-29T04:07:46;81907.19;;;11.90;55.52
64711;BME280;51139;45.626;6.850;2023-05-29T04:10:11;81923.44;;;11.85;55.40
64711;BME280;51139;45.626;6.850;2023-05-29T04:12:37;81914.03;;;12.54;54.09
64711;BME280;51139;45.626;6.850;2023-05-29T04:15:03;81924.56;;;12.43;53.33
64711;BME280;51139;45.626;6.850;2023-05-29T04:17:28;81919.28;;;12.33;54.52
64711;BME280;51139;45.626;6.850;2023-05-29T04:19:54;81929.91;;;12.33;54.42
64711;BME280;51139;45.626;6.850;2023-05-29T04:22:19;81929.56;;;11.87;54.94
64711;BME280;51139;45.626;6.850;2023-05-29T04:24:46;81929.66;;;12.29;53.87
64711;BME280;51139;45.626;6.850;2023-05-29T04:27:11;81933.91;;;11.82;54.72
64711;BME280;51139;45.626;6.850;2023-05-29T04:29:41;81930.03;;;11.64;55.98
64711;BME280;51139;45.626;6.850;2023-05-29T04:32:10;81939.47;;;11.77;55.93
64711;BME280;51139;45.626;6.850;2023-05-29T04:34:37;81936.63;;;12.34;53.40
64711;BME280;51139;45.626;6.850;2023-05-29T04:37:04;81933.16;;;12.63;52.82
64711;BME280;51139;45.626;6.850;2023-05-29T04:39:30;81931.69;;;12.50;52.43
64711;BME280;51139;45.626;6.850;2023-05-29T04:41:56;81938.41;;;12.82;52.14
64711;BME280;51139;45.626;6.850;2023-05-29T04:44:24;81948.94;;;12.70;52.21
64711;BME280;51139;45.626;6.850;2023-05-29T04:46:51;81945.44;;;12.99;51.69
64711;BME280;51139;45.626;6.850;2023-05-29T04:49:17;81942.69;;;12.56;51.87
64711;BME280;51139;45.626;6.850;2023-05-29T04:51:43;81943.66;;;12.09;53.80
64711;BME280;51139;45.626;6.850;2023-05-29T04:54:11;81954.41;;;10.93;58.57
64711;BME280;51139;45.626;6.850;2023-05-29T04:56:38;81949.56;;;11.49;56.11
64711;BME280;51139;45.626;6.850;2023-05-29T04:59:06;81952.50;;;11.33;57.24
64711;BME280;51139;45.626;6.850;2023-05-29T05:01:32;81951.09;;;11.72;55.04
64711;BME280;51139;45.626;6.850;2023-05-29T05:03:59;81955.78;;;11.04;58.13
64711;BME280;51139;45.626;6.850;2023-05-29T05:06:24;81948.16;;;11.48;57.02
64711;BME280;51139;45.626;6.850;2023-05-29T05:08:51;81954.97;;;11.90;55.33
64711;BME280;51139;45.626;6.850;2023-05-29T05:11:17;81958.34;;;11.61;56.15
64711;BME280;51139;45.626;6.850;2023-05-29T05:13:43;81955.00;;;12.51;53.03
64711;BME280;51139;45.626;6.850;2023-05-29T05:16:08;81956.16;;;12.80;52.95
64711;BME280;51139;45.626;6.850;2023-05-29T05:18:34;81959.75;;;12.02;53.45
64711;BME280;51139;45.626;6.850;2023-05-29T05:20:59;81960.84;;;12.60;52.42
64711;BME280;51139;45.626;6.850;2023-05-29T05:23:25;81950.16;;;12.38;52.46
64711;BME280;51139;45.626;6.850;2023-05-29T05:25:50;81957.63;;;12.61;52.45
64711;BME280;51139;45.626;6.850;2023-05-29T05:28:15;81964.03;;;12.26;54.17
64711;BME280;51139;45.626;6.850;2023-05-29T05:30:41;81950.34;;;12.20;52.57
64711;BME280;51139;45.626;6.850;2023-05-29T05:33:06;81963.91;;;12.15;53.41
64711;BME280;51139;45.626;6.850;2023-05-29T05:35:33;81953.66;;;12.40;52.23
64711;BME280;51139;45.626;6.850;2023-05-29T05:37:58;81955.78;;;12.22;55.13
64711;BME280;51139;45.626;6.850;2023-05-29T05:40:25;81959.31;;;12.15;54.97
64711;BME280;51139;45.626;6.850;2023-05-29T05:42:51;81954.66;;;12.25;56.07
64711;BME280;51139;45.626;6.850;2023-05-29T05:45:16;81958.81;;;12.80;52.71
64711;BME280;51139;45.626;6.850;2023-05-29T05:47:41;81957.53;;;12.91;53.35
64711;BME280;51139;45.626;6.850;2023-05-29T05:50:07;81957.94;;;13.40;51.77
64711;BME280;51139;45.626;6.850;2023-05-29T05:52:32;81953.56;;;13.23;51.29
64711;BME280;51139;45.626;6.850;2023-05-29T05:54:58;81958.94;;;13.45;51.03
64711;BME280;51139;45.626;6.850;2023-05-29T05:57:24;81965.25;;;13.40;52.28
64711;BME280;51139;45.626;6.850;2023-05-29T05:59:50;81966.41;;;13.59;52.44
64711;BME280;51139;45.626;6.850;2023-05-29T06:02:16;81964.50;;;12.96;53.36
64711;BME280;51139;45.626;6.850;2023-05-29T06:04:41;81968.09;;;13.01;53.55
64711;BME280;51139;45.626;6.850;2023-05-29T06:07:06;81963.38;;;12.99;53.50
64711;BME280;51139;45.626;6.850;2023-05-29T06:09:32;81964.25;;;13.67;52.44
64711;BME280;51139;45.626;6.850;2023-05-29T06:11:57;81971.28;;;13.62;51.58
64711;BME280;51139;45.626;6.850;2023-05-29T06:14:25;81973.56;;;13.24;54.25
64711;BME280;51139;45.626;6.850;2023-05-29T06:16:51;81964.44;;;13.81;51.89
64711;BME280;51139;45.626;6.850;2023-05-29T06:19:16;81974.59;;;13.73;51.37
64711;BME280;51139;45.626;6.850;2023-05-29T06:21:41;81976.97;;;13.90;50.87
64711;BME280;51139;45.626;6.850;2023-05-29T06:24:07;81978.47;;;13.28;48.92
64711;BME280;51139;45.626;6.850;2023-05-29T06:26:33;81973.25;;;14.17;49.07
64711;BME280;51139;45.626;6.850;2023-05-29T06:28:59;81973.56;;;14.11;48.90
64711;BME280;51139;45.626;6.850;2023-05-29T06:31:24;81970.66;;;14.41;49.01
64711;BME280;51139;45.626;6.850;2023-05-29T06:33:50;81974.06;;;14.65;48.10
64711;BME280;51139;45.626;6.850;2023-05-29T06:36:15;81976.69;;;15.23;47.57
64711;BME280;51139;45.626;6.850;2023-05-29T06:38:48;81974.94;;;15.51;47.75
64711;BME280;51139;45.626;6.850;2023-05-29T06:41:14;81976.34;;;15.40;49.90
64711;BME280;51139;45.626;6.850;2023-05-29T06:43:39;81976.81;;;15.37;49.34
64711;BME280;51139;45.626;6.850;2023-05-29T06:46:05;81968.28;;;14.57;49.52
64711;BME280;51139;45.626;6.850;2023-05-29T06:48:34;81971.16;;;14.61;52.69
64711;BME280;51139;45.626;6.850;2023-05-29T06:51:00;81979.13;;;15.42;50.68
64711;BME280;51139;45.626;6.850;2023-05-29T06:53:25;81972.50;;;16.17;49.20
64711;BME280;51139;45.626;6.850;2023-05-29T06:55:52;81980.41;;;15.41;52.76
64711;BME280;51139;45.626;6.850;2023-05-29T06:58:17;81965.56;;;15.62;47.64
64711;BME280;51139;45.626;6.850;2023-05-29T07:00:43;81967.34;;;15.95;47.79
64711;BME280;51139;45.626;6.850;2023-05-29T07:03:08;81972.19;;;15.13;49.50
64711;BME280;51139;45.626;6.850;2023-05-29T07:05:33;81971.53;;;15.98;47.42
64711;BME280;51139;45.626;6.850;2023-05-29T07:07:59;81983.22;;;15.31;52.39
64711;BME280;51139;45.626;6.850;2023-05-29T07:10:24;81974.41;;;16.02;45.14
64711;BME280;51139;45.626;6.850;2023-05-29T07:12:50;81981.00;;;17.03;43.90
64711;BME280;51139;45.626;6.850;2023-05-29T07:15:15;81972.13;;;15.85;43.98
64711;BME280;51139;45.626;6.850;2023-05-29T07:17:40;81965.00;;;16.01;43.59
64711;BME280;51139;45.626;6.850;2023-05-29T07:20:06;81978.78;;;16.22;45.79
64711;BME280;51139;45.626;6.850;2023-05-29T07:22:33;81979.59;;;15.39;44.87
64711;BME280;51139;45.626;6.850;2023-05-29T07:24:59;81976.75;;;16.08;44.27
64711;BME280;51139;45.626;6.850;2023-05-29T07:27:25;81966.28;;;16.64;42.48
64711;BME280;51139;45.626;6.850;2023-05-29T07:29:50;81959.22;;;16.83;43.40
64711;BME280;51139;45.626;6.850;2023-05-29T07:32:16;81977.75;;;16.15;42.14
64711;BME280;51139;45.626;6.850;2023-05-29T07:34:41;81979.50;;;14.55;45.35
64711;BME280;51139;45.626;6.850;2023-05-29T07:37:07;81982.97;;;15.27;45.46
64711;BME280;51139;45.626;6.850;2023-05-29T07:39:33;81976.53;;;15.92;45.70
64711;BME280;51139;45.626;6.850;2023-05-29T07:42:00;81985.38;;;15.95;45.65
64711;BME280;51139;45.626;6.850;2023-05-29T07:44:29;81977.56;;;16.37;43.33
64711;BME280;51139;45.626;6.850;2023-05-29T07:46:54;81985.16;;;16.80;43.44
64711;BME280;51139;45.626;6.850;2023-05-29T07:49:20;81985.50;;;15.61;47.27
64711;BME280;51139;45.626;6.850;2023-05-29T07:51:46;81982.00;;;14.87;45.60
64711;BME280;51139;45.626;6.850;2023-05-29T07:54:11;81981.69;;;15.64;46.64
64711;BME280;51139;45.626;6.850;2023-05-29T07:56:37;81981.63;;;14.69;46.28
64711;BME280;51139;45.626;6.850;2023-05-29T07:59:03;81997.22;;;15.92;43.92
64711;BME280;51139;45.626;6.850;2023-05-29T08:01:29;81973.56;;;15.62;44.56
64711;BME280;51139;45.626;6.850;2023-05-29T08:03:55;81971.75;;;16.02;43.89
64711;BME280;51139;45.626;6.850;2023-05-29T08:06:20;81973.84;;;16.68;42.45
64711;BME280;51139;45.626;6.850;2023-05-29T08:08:46;81978.53;;;16.81;42.06
64711;BME280;51139;45.626;6.850;2023-05-29T08:11:12;81962.94;;;17.57;41.84
64711;BME280;51139;45.626;6.850;2023-05-29T08:13:37;81964.00;;;16.58;41.87
64711;BME280;51139;45.626;6.850;2023-05-29T08:16:03;81966.22;;;17.56;41.87
64711;BME280;51139;45.626;6.850;2023-05-29T08:18:31;81972.53;;;17.34;41.23
64711;BME280;51139;45.626;6.850;2023-05-29T08:20:56;81977.22;;;16.30;44.82
64711;BME280;51139;45.626;6.850;2023-05-29T08:23:22;81971.22;;;16.56;43.14
64711;BME280;51139;45.626;6.850;2023-05-29T08:25:47;81967.50;;;17.01;42.05
64711;BME280;51139;45.626;6.850;2023-05-29T08:28:14;81973.97;;;15.82;44.57
64711;BME280;51139;45.626;6.850;2023-05-29T08:30:40;81976.59;;;15.09;44.08
64711;BME280;51139;45.626;6.850;2023-05-29T08:33:05;81976.53;;;16.30;42.26
64711;BME280;51139;45.626;6.850;2023-05-29T08:35:31;81976.03;;;15.22;42.84
64711;BME280;51139;45.626;6.850;2023-05-29T08:37:56;81975.28;;;16.19;42.11
64711;BME280;51139;45.626;6.850;2023-05-29T08:40:21;81968.47;;;17.33;39.78
64711;BME280;51139;45.626;6.850;2023-05-29T08:42:54;81968.06;;;17.53;39.63
64711;BME280;51139;45.626;6.850;2023-05-29T08:45:22;81972.13;;;17.26;40.55
64711;BME280;51139;45.626;6.850;2023-05-29T08:47:52;81964.56;;;16.31;50.50
64711;BME280;51139;45.626;6.850;2023-05-29T08:50:19;81980.03;;;14.76;45.41
64711;BME280;51139;45.626;6.850;2023-05-29T08:52:45;81983.47;;;15.85;51.99
64711;BME280;51139;45.626;6.850;2023-05-29T08:55:11;81979.50;;;17.00;48.49
64711;BME280;51139;45.626;6.850;2023-05-29T08:57:37;81981.88;;;17.75;44.74
64711;BME280;51139;45.626;6.850;2023-05-29T09:00:07;81976.81;;;17.96;42.93
64711;BME280;51139;45.626;6.850;2023-05-29T09:02:39;81986.94;;;16.12;46.32
64711;BME280;51139;45.626;6.850;2023-05-29T09:05:05;81985.84;;;16.55;43.10
64711;BME280;51139;45.626;6.850;2023-05-29T09:07:32;81978.81;;;16.99;49.62
64711;BME280;51139;45.626;6.850;2023-05-29T09:09:57;81977.41;;;16.46;50.10
64711;BME280;51139;45.626;6.850;2023-05-29T09:12:24;81987.63;;;15.51;43.65
64711;BME280;51139;45.626;6.850;2023-05-29T09:14:50;81980.22;;;14.68;43.31
64711;BME280;51139;45.626;6.850;2023-05-29T09:17:15;81979.34;;;14.75;46.13
64711;BME280;51139;45.626;6.850;2023-05-29T09:19:41;81980.38;;;15.89;44.99
64711;BME280;51139;45.626;6.850;2023-05-29T09:22:14;81972.06;;;16.72;47.20
64711;BME280;51139;45.626;6.850;2023-05-29T09:24:40;81972.28;;;17.02;47.43
64711;BME280;51139;45.626;6.850;2023-05-29T09:27:08;81986.91;;;16.75;42.13
64711;BME280;51139;45.626;6.850;2023-05-29T09:29:41;81983.56;;;15.14;46.67
64711;BME280;51139;45.626;6.850;2023-05-29T09:32:18;81986.22;;;15.14;43.50
64711;BME280;51139;45.626;6.850;2023-05-29T09:34:44;81984.34;;;16.26;44.09
64711;BME280;51139;45.626;6.850;2023-05-29T09:37:11;81984.81;;;17.26;43.81
64711;BME280;51139;45.626;6.850;2023-05-29T09:39:47;81985.56;;;17.14;41.21
64711;BME280;51139;45.626;6.850;2023-05-29T09:42:13;81993.38;;;17.92;41.90
64711;BME280;51139;45.626;6.850;2023-05-29T09:44:44;81989.63;;;17.69;38.14
64711;BME280;51139;45.626;6.850;2023-05-29T09:47:09;81989.00;;;18.27;39.45
64711;BME280;51139;45.626;6.850;2023-05-29T09:49:41;81993.03;;;17.16;43.97
64711;BME280;51139;45.626;6.850;2023-05-29T09:52:06;81993.56;;;16.74;39.64
64711;BME280;51139;45.626;6.850;2023-05-29T09:54:34;81981.78;;;17.45;43.58
64711;BME280;51139;45.626;6.850;2023-05-29T09:57:03;81991.09;;;17.72;45.66
64711;BME280;51139;45.626;6.850;2023-05-29T09:59:30;81987.53;;;18.09;42.52
64711;BME280;51139;45.626;6.850;2023-05-29T10:02:03;81980.75;;;18.80;41.23
64711;BME280;51139;45.626;6.850;2023-05-29T10:04:33;81989.09;;;17.45;38.20
64711;BME280;51139;45.626;6.850;2023-05-29T10:07:11;81981.09;;;17.59;37.83
64711;BME280;51139;45.626;6.850;2023-05-29T10:09:44;81987.03;;;17.43;41.39
64711;BME280;51139;45.626;6.850;2023-05-29T10:12:15;81993.47;;;16.98;42.15
64711;BME280;51139;45.626;6.850;2023-05-29T10:14:43;81995.44;;;15.84;39.78
64711;BME280;51139;45.626;6.850;2023-05-29T10:17:11;81979.78;;;17.46;43.01
64711;BME280;51139;45.626;6.850;2023-05-29T10:19:38;81976.31;;;17.43;39.03
64711;BME280;51139;45.626;6.850;2023-05-29T10:22:04;81990.94;;;16.88;42.12
64711;BME280;51139;45.626;6.850;2023-05-29T10:24:32;81993.72;;;16.39;43.35
64711;BME280;51139;45.626;6.850;2023-05-29T10:26:58;81984.94;;;17.28;41.17
64711;BME280;51139;45.626;6.850;2023-05-29T10:29:36;81985.00;;;17.16;44.58
64711;BME280;51139;45.626;6.850;2023-05-29T10:37:39;81983.81;;;17.19;38.71
64711;BME280;51139;45.626;6.850;2023-05-29T10:40:07;81981.41;;;17.79;37.69
64711;BME280;51139;45.626;6.850;2023-05-29T10:45:06;81978.31;;;17.57;38.28
64711;BME280;51139;45.626;6.850;2023-05-29T10:47:31;81970.72;;;17.25;38.04
64711;BME280;51139;45.626;6.850;2023-05-29T10:50:00;81983.38;;;18.20;40.44
64711;BME280;51139;45.626;6.850;2023-05-29T10:52:33;81975.66;;;18.13;38.43
64711;BME280;51139;45.626;6.850;2023-05-29T10:54:59;81988.44;;;17.72;37.94
64711;BME280;51139;45.626;6.850;2023-05-29T10:57:25;81977.50;;;17.96;38.92
64711;BME280;51139;45.626;6.850;2023-05-29T11:00:17;81976.91;;;17.56;38.54
64711;BME280;51139;45.626;6.850;2023-05-29T11:02:44;81973.75;;;17.73;40.50
64711;BME280;51139;45.626;6.850;2023-05-29T11:05:21;81978.22;;;17.97;38.65
64711;BME280;51139;45.626;6.850;2023-05-29T11:08:00;81986.13;;;18.22;40.14
64711;BME280;51139;45.626;6.850;2023-05-29T11:10:43;81987.00;;;17.29;40.29
64711;BME280;51139;45.626;6.850;2023-05-29T11:13:10;81986.81;;;17.53;40.75
64711;BME280;51139;45.626;6.850;2023-05-29T11:15:37;81992.41;;;18.27;39.30
64711;BME280;51139;45.626;6.850;2023-05-29T11:18:11;81985.69;;;18.86;38.36
64711;BME280;51139;45.626;6.850;2023-05-29T11:20:43;81981.28;;;18.19;38.99
64711;BME280;51139;45.626;6.850;2023-05-29T11:23:15;81982.94;;;19.14;40.07
64711;BME280;51139;45.626;6.850;2023-05-29T11:25:44;81989.63;;;18.25;38.54
64711;BME280;51139;45.626;6.850;2023-05-29T11:28:10;81990.03;;;17.91;39.06
64711;BME280;51139;45.626;6.850;2023-05-29T11:30:48;81981.53;;;18.83;42.47
64711;BME280;51139;45.626;6.850;2023-05-29T11:33:27;81982.72;;;18.80;40.48
64711;BME280;51139;45.626;6.850;2023-05-29T11:36:00;81989.22;;;17.61;41.71
64711;BME280;51139;45.626;6.850;2023-05-29T11:38:26;82002.44;;;16.91;40.56
64711;BME280;51139;45.626;6.850;2023-05-29T11:40:55;81990.19;;;17.26;41.88
64711;BME280;51139;45.626;6.850;2023-05-29T11:43:21;81987.06;;;18.13;43.89
64711;BME280;51139;45.626;6.850;2023-05-29T11:45:47;81986.00;;;18.48;41.04
64711;BME280;51139;45.626;6.850;2023-05-29T11:48:13;81983.38;;;18.64;40.50
64711;BME280;51139;45.626;6.850;2023-05-29T11:50:38;81984.66;;;18.93;38.89
64711;BME280;51139;45.626;6.850;2023-05-29T11:53:05;81978.56;;;18.47;39.92
64711;BME280;51139;45.626;6.850;2023-05-29T11:55:31;81985.22;;;18.76;39.86
64711;BME280;51139;45.626;6.850;2023-05-29T11:58:01;81980.59;;;19.22;38.76
64711;BME280;51139;45.626;6.850;2023-05-29T12:00:31;81973.75;;;19.19;39.00
64711;BME280;51139;45.626;6.850;2023-05-29T12:02:58;81978.91;;;17.69;39.35
64711;BME280;51139;45.626;6.850;2023-05-29T12:05:29;81972.56;;;17.76;41.60
64711;BME280;51139;45.626;6.850;2023-05-29T12:07:55;81979.38;;;17.65;40.26
64711;BME280;51139;45.626;6.850;2023-05-29T12:10:23;81979.31;;;18.05;40.10
64711;BME280;51139;45.626;6.850;2023-05-29T12:12:54;81980.41;;;18.58;41.53
64711;BME280;51139;45.626;6.850;2023-05-29T12:15:20;81982.88;;;17.68;43.55
64711;BME280;51139;45.626;6.850;2023-05-29T12:17:47;81988.56;;;17.20;41.61
64711;BME280;51139;45.626;6.850;2023-05-29T12:20:14;81995.25;;;16.56;40.41
64711;BME280;51139;45.626;6.850;2023-05-29T12:22:41;81992.09;;;17.65;39.25
64711;BME280;51139;45.626;6.850;2023-05-29T12:25:20;81995.31;;;16.96;39.93
64711;BME280;51139;45.626;6.850;2023-05-29T12:27:47;82003.66;;;16.76;41.43
64711;BME280;51139;45.626;6.850;2023-05-29T12:32:44;81995.00;;;15.88;41.04
64711;BME280;51139;45.626;6.850;2023-05-29T12:37:35;81998.91;;;16.11;43.39
64711;BME280;51139;45.626;6.850;2023-05-29T12:40:17;82001.03;;;14.81;46.29
64711;BME280;51139;45.626;6.850;2023-05-29T12:42:42;82003.59;;;15.03;45.74
64711;BME280;51139;45.626;6.850;2023-05-29T12:45:08;82012.72;;;14.76;46.89
64711;BME280;51139;45.626;6.850;2023-05-29T12:47:35;82004.25;;;14.80;45.18
64711;BME280;51139;45.626;6.850;2023-05-29T12:52:45;82004.66;;;14.19;47.23
64711;BME280;51139;45.626;6.850;2023-05-29T12:55:10;82006.72;;;13.65;47.29
64711;BME280;51139;45.626;6.850;2023-05-29T12:57:36;81995.47;;;13.45;48.09
64711;BME280;51139;45.626;6.850;2023-05-29T13:00:01;82001.66;;;13.37;48.55
64711;BME280;51139;45.626;6.850;2023-05-29T13:02:27;82004.03;;;13.65;49.55
64711;BME280;51139;45.626;6.850;2023-05-29T13:04:54;82001.31;;;13.53;48.97
64711;BME280;51139;45.626;6.850;2023-05-29T13:07:19;82006.50;;;13.94;49.13
64711;BME280;51139;45.626;6.850;2023-05-29T13:09:45;81998.25;;;13.68;48.57
64711;BME280;51139;45.626;6.850;2023-05-29T13:12:11;82006.38;;;13.49;48.48
64711;BME280;51139;45.626;6.850;2023-05-29T13:14:36;81997.03;;;14.03;51.59
64711;BME280;51139;45.626;6.850;2023-05-29T13:17:01;81992.00;;;13.85;49.82